createdAt,value
2023-01-21T00:01:16.499Z,97892.81
2023-01-21T00:03:45.108Z,97888.47
2023-01-21T00:06:17.707Z,97886.59
2023-01-21T00:08:45.418Z,97893.63
2023-01-21T00:11:15.539Z,97899.78
2023-01-21T00:13:44.597Z,97900.81
2023-01-21T00:16:13.591Z,97900.81
2023-01-21T00:18:41.709Z,97904.06
2023-01-21T00:21:09.789Z,97912.19
2023-01-21T00:23:37.527Z,97907.03
2023-01-21T00:26:07.884Z,97907.25
2023-01-21T00:28:37.276Z,97914.09
2023-01-21T00:31:09.198Z,97905.25
2023-01-21T00:33:37.416Z,97904.53
2023-01-21T00:36:11.606Z,97915.78
2023-01-21T00:38:39.573Z,97906.31
2023-01-21T00:41:10.894Z,97915.78
2023-01-21T00:43:39.821Z,97912.94
2023-01-21T00:46:07.847Z,97914.38
2023-01-21T00:48:35.734Z,97919.53
2023-01-21T00:51:04.101Z,97917.03
2023-01-21T00:53:35.864Z,97914.38
2023-01-21T00:56:07.192Z,97916.06
2023-01-21T00:58:35.995Z,97923.94
2023-01-21T01:01:11.289Z,97935.47
2023-01-21T01:03:40.667Z,97931.84
2023-01-21T01:06:18.600Z,97934.72
2023-01-21T01:08:46.920Z,97936.28
2023-01-21T01:11:15.847Z,97933.56
2023-01-21T01:13:43.928Z,97948.50
2023-01-21T01:16:15.217Z,97933.56
2023-01-21T01:18:44.548Z,97941.03
2023-01-21T01:21:16.689Z,97941.03
2023-01-21T01:23:45.508Z,97944.53
2023-01-21T01:26:17.175Z,97950.28
2023-01-21T01:28:45.624Z,97955.56
2023-01-21T01:31:17.020Z,97952.81
2023-01-21T01:33:45.138Z,97952.81
2023-01-21T01:36:20.665Z,97959.88
2023-01-21T01:38:48.384Z,97960.00
2023-01-21T01:41:20.189Z,97961.16
2023-01-21T01:43:54.152Z,97959.56
2023-01-21T01:46:24.484Z,97954.31
2023-01-21T01:49:14.557Z,97962.44
2023-01-21T01:51:50.440Z,97955.38
2023-01-21T01:54:23.454Z,97963.81
2023-01-21T01:56:55.478Z,97957.72
2023-01-21T01:59:24.045Z,97964.66
2023-01-21T02:01:52.082Z,97973.41
2023-01-21T02:04:29.687Z,97969.91
2023-01-21T02:06:58.144Z,97976.88
2023-01-21T02:09:29.784Z,97977.94
2023-01-21T02:12:01.022Z,97983.53
2023-01-21T02:14:30.656Z,97985.66
2023-01-21T02:17:39.299Z,97989.25
2023-01-21T02:20:15.752Z,97987.91
2023-01-21T02:23:20.585Z,97990.72
2023-01-21T02:26:15.192Z,97993.25
2023-01-21T02:29:14.236Z,98005.88
2023-01-21T02:32:13.635Z,98003.91
2023-01-21T02:34:56.848Z,98003.28
2023-01-21T02:38:06.978Z,98014.31
2023-01-21T02:40:54.925Z,98020.41
2023-01-21T02:43:41.725Z,98023.63
2023-01-21T02:46:47.991Z,98016.59
2023-01-21T02:49:27.330Z,98021.44
2023-01-21T02:51:55.173Z,98021.75
2023-01-21T02:54:41.161Z,98022.44
2023-01-21T02:57:31.178Z,98022.66
2023-01-21T03:00:01.307Z,98026.44
2023-01-21T03:02:56.500Z,98031.66
2023-01-21T03:06:09.827Z,98026.72
2023-01-21T03:09:25.433Z,98027.41
2023-01-21T03:12:29.751Z,98032.56
2023-01-21T03:15:50.515Z,98033.69
2023-01-21T03:18:24.478Z,98036.13
2023-01-21T03:21:07.317Z,98043.75
2023-01-21T03:23:42.988Z,98037.84
2023-01-21T03:26:14.526Z,98029.44
2023-01-21T03:28:49.091Z,98034.88
2023-01-21T03:31:23.993Z,98039.38
2023-01-21T03:33:55.932Z,98042.00
2023-01-21T03:36:58.697Z,98046.34
2023-01-21T03:39:43.943Z,98048.03
2023-01-21T03:42:13.340Z,98050.66
2023-01-21T03:44:42.384Z,98050.75
2023-01-21T03:47:36.392Z,98056.41
2023-01-21T03:50:20.318Z,98056.94
2023-01-21T03:52:48.278Z,98054.97
2023-01-21T03:55:19.352Z,98051.59
2023-01-21T03:57:47.436Z,98045.81
2023-01-21T04:00:16.124Z,98046.75
2023-01-21T04:02:44.330Z,98053.78
2023-01-21T04:05:14.227Z,98052.06
2023-01-21T04:07:41.927Z,98063.53
2023-01-21T04:10:10.726Z,98064.47
2023-01-21T04:12:38.729Z,98065.28
2023-01-21T04:15:07.610Z,98064.53
2023-01-21T04:17:35.336Z,98063.81
2023-01-21T04:20:03.066Z,98067.56
2023-01-21T04:22:30.792Z,98076.31
2023-01-21T04:24:58.514Z,98074.69
2023-01-21T04:27:26.229Z,98074.03
2023-01-21T04:29:53.943Z,98078.53
2023-01-21T04:32:21.671Z,98076.94
2023-01-21T04:34:49.392Z,98075.25
2023-01-21T04:37:17.133Z,98079.13
2023-01-21T04:39:44.836Z,98081.91
2023-01-21T04:42:12.557Z,98077.41
2023-01-21T04:44:40.647Z,98075.84
2023-01-21T04:47:08.371Z,98080.88
2023-01-21T04:49:36.093Z,98081.75
2023-01-21T04:52:04.179Z,98081.75
2023-01-21T04:54:32.010Z,98084.63
2023-01-21T04:56:59.753Z,98084.91
2023-01-21T04:59:27.457Z,98080.97
2023-01-21T05:01:55.190Z,98088.09
2023-01-21T05:04:23.017Z,98092.59
2023-01-21T05:06:50.744Z,98089.88
2023-01-21T05:09:18.462Z,98089.50
2023-01-21T05:11:46.307Z,98094.66
2023-01-21T05:14:14.033Z,98102.34
2023-01-21T05:16:41.908Z,98100.00
2023-01-21T05:19:09.833Z,98097.84
2023-01-21T05:21:37.673Z,98099.44
2023-01-21T05:24:05.757Z,98105.91
2023-01-21T05:26:33.482Z,98107.22
2023-01-21T05:29:01.213Z,98114.69
2023-01-21T05:31:29.151Z,98116.09
2023-01-21T05:33:57.734Z,98121.25
2023-01-21T05:36:25.449Z,98116.84
2023-01-21T05:38:53.174Z,98112.34
2023-01-21T05:41:20.896Z,98113.97
2023-01-21T05:43:48.738Z,98119.22
2023-01-21T05:46:17.324Z,98134.22
2023-01-21T05:48:45.142Z,98132.59
2023-01-21T05:51:13.158Z,98129.34
2023-01-21T05:53:41.070Z,98131.97
2023-01-21T05:56:08.907Z,98139.94
2023-01-21T05:58:36.757Z,98135.63
2023-01-21T06:01:04.712Z,98137.41
2023-01-21T06:03:32.565Z,98138.78
2023-01-21T06:06:00.397Z,98146.88
2023-01-21T06:08:28.240Z,98149.13
2023-01-21T06:10:56.443Z,98148.09
2023-01-21T06:13:24.524Z,98150.88
2023-01-21T06:15:56.539Z,98151.56
2023-01-21T06:18:25.501Z,98159.06
2023-01-21T06:20:53.825Z,98165.91
2023-01-21T06:23:21.566Z,98163.22
2023-01-21T06:25:49.259Z,98161.97
2023-01-21T06:28:17.114Z,98169.66
2023-01-21T06:30:45.324Z,98166.94
2023-01-21T06:33:13.146Z,98164.41
2023-01-21T06:35:40.984Z,98178.75
2023-01-21T06:38:08.739Z,98182.84
2023-01-21T06:40:36.428Z,98187.19
2023-01-21T06:43:04.272Z,98188.28
2023-01-21T06:45:32.008Z,98191.66
2023-01-21T06:47:59.717Z,98192.03
2023-01-21T06:50:27.578Z,98194.41
2023-01-21T06:52:55.281Z,98201.16
2023-01-21T06:55:23.005Z,98205.28
2023-01-21T06:57:50.724Z,98213.72
2023-01-21T07:00:19.641Z,98214.28
2023-01-21T07:02:47.864Z,98210.91
2023-01-21T07:05:16.043Z,98214.56
2023-01-21T07:07:44.014Z,98213.63
2023-01-21T07:10:12.105Z,98219.03
2023-01-21T07:12:39.832Z,98224.13
2023-01-21T07:15:08.620Z,98232.56
2023-01-21T07:17:36.347Z,98228.72
2023-01-21T07:20:05.166Z,98231.94
2023-01-21T07:22:36.350Z,98243.00
2023-01-21T07:25:05.511Z,98242.81
2023-01-21T07:27:33.233Z,98251.25
2023-01-21T07:30:00.969Z,98252.94
2023-01-21T07:32:28.680Z,98254.81
2023-01-21T07:34:56.644Z,98258.31
2023-01-21T07:37:24.494Z,98258.19
2023-01-21T07:39:54.503Z,98262.34
2023-01-21T07:42:22.344Z,98266.56
2023-01-21T07:44:50.171Z,98273.13
2023-01-21T07:47:17.893Z,98272.19
2023-01-21T07:49:45.614Z,98276.53
2023-01-21T07:52:13.348Z,98270.13
2023-01-21T07:54:42.021Z,98272.47
2023-01-21T07:57:09.752Z,98272.19
2023-01-21T07:59:37.465Z,98278.84
2023-01-21T08:02:05.283Z,98268.25
2023-01-21T08:04:33.033Z,98273.31
2023-01-21T08:07:01.963Z,98277.25
2023-01-21T08:09:29.794Z,98284.13
2023-01-21T08:11:57.754Z,98286.53
2023-01-21T08:14:25.493Z,98284.78
2023-01-21T08:16:53.205Z,98278.47
2023-01-21T08:19:20.925Z,98277.06
2023-01-21T08:21:48.766Z,98283.28
2023-01-21T08:24:16.488Z,98280.44
2023-01-21T08:26:44.711Z,98285.53
2023-01-21T08:29:12.412Z,98274.63
2023-01-21T08:31:40.395Z,98274.41
2023-01-21T08:34:08.222Z,98281.53
2023-01-21T08:36:38.588Z,98284.00
2023-01-21T08:39:06.460Z,98282.94
2023-01-21T08:41:34.380Z,98274.97
2023-01-21T08:44:02.230Z,98281.63
2023-01-21T08:46:29.973Z,98279.44
2023-01-21T08:48:57.670Z,98286.03
2023-01-21T08:51:25.773Z,98287.72
2023-01-21T08:53:53.596Z,98294.56
2023-01-21T08:56:21.331Z,98292.69
2023-01-21T08:58:54.683Z,98288.25
2023-01-21T09:01:22.701Z,98283.66
2023-01-21T09:03:57.834Z,98288.25
2023-01-21T09:06:28.769Z,98296.72
2023-01-21T09:08:57.011Z,98289.00
2023-01-21T09:11:29.376Z,98290.53
2023-01-21T09:14:00.610Z,98292.00
2023-01-21T09:16:28.472Z,98290.00
2023-01-21T09:18:56.861Z,98290.13
2023-01-21T09:21:24.826Z,98286.63
2023-01-21T09:23:52.561Z,98293.16
2023-01-21T09:26:23.506Z,98289.22
2023-01-21T09:28:58.432Z,98293.81
2023-01-21T09:31:29.424Z,98295.78
2023-01-21T09:34:03.861Z,98300.59
2023-01-21T09:36:34.815Z,98297.31
2023-01-21T09:39:02.887Z,98297.78
2023-01-21T09:41:49.565Z,98290.53
2023-01-21T09:44:39.986Z,98299.75
2023-01-21T09:47:34.807Z,98300.88
2023-01-21T09:50:10.347Z,98311.88
2023-01-21T09:52:51.985Z,98315.25
2023-01-21T09:55:41.294Z,98321.63
2023-01-21T09:58:37.946Z,98324.06
2023-01-21T10:01:34.387Z,98324.63
2023-01-21T10:04:40.264Z,98318.31
2023-01-21T10:07:27.789Z,98327.53
2023-01-21T10:10:15.752Z,98321.22
2023-01-21T10:13:20.551Z,98327.72
2023-01-21T10:16:41.120Z,98321.91
2023-01-21T10:19:19.746Z,98315.34
2023-01-21T10:22:00.397Z,98312.81
2023-01-21T10:24:45.283Z,98312.72
2023-01-21T10:27:21.288Z,98315.91
2023-01-21T10:29:54.408Z,98310.16
2023-01-21T10:32:27.186Z,98307.41
2023-01-21T10:34:57.812Z,98310.69
2023-01-21T10:37:48.174Z,98311.56
2023-01-21T10:40:44.247Z,98313.53
2023-01-21T10:43:49.274Z,98322.09
2023-01-21T10:46:18.911Z,98310.56
2023-01-21T10:48:55.751Z,98316.66
2023-01-21T10:51:38.595Z,98320.69
2023-01-21T10:54:39.090Z,98324.25
2023-01-21T10:57:45.915Z,98321.03
2023-01-21T11:00:32.837Z,98320.28
2023-01-21T11:03:14.362Z,98325.66
2023-01-21T11:05:43.047Z,98320.94
2023-01-21T11:08:22.681Z,98319.25
2023-01-21T11:10:55.181Z,98312.44
2023-01-21T11:13:23.749Z,98320.81
2023-01-21T11:15:55.211Z,98322.38
2023-01-21T11:18:30.937Z,98321.47
2023-01-21T11:21:22.815Z,98315.53
2023-01-21T11:24:19.423Z,98318.91
2023-01-21T11:27:15.224Z,98310.06
2023-01-21T11:29:42.948Z,98313.06
2023-01-21T11:32:24.024Z,98311.63
2023-01-21T11:35:22.071Z,98316.03
2023-01-21T11:37:50.168Z,98310.06
2023-01-21T11:40:28.927Z,98308.25
2023-01-21T11:42:57.361Z,98308.97
2023-01-21T11:45:31.925Z,98299.94
2023-01-21T11:48:01.093Z,98301.13
2023-01-21T11:50:40.564Z,98292.78
2023-01-21T11:53:09.058Z,98298.16
2023-01-21T11:55:59.776Z,98297.81
2023-01-21T11:58:36.771Z,98287.84
2023-01-21T12:01:08.547Z,98284.78
2023-01-21T12:03:53.746Z,98284.63
2023-01-21T12:06:26.062Z,98274.09
2023-01-21T12:09:00.261Z,98282.00
2023-01-21T12:11:31.225Z,98276.41
2023-01-21T12:14:17.472Z,98275.56
2023-01-21T12:17:09.990Z,98278.41
2023-01-21T12:19:49.959Z,98287.44
2023-01-21T12:22:57.878Z,98281.09
2023-01-21T12:25:40.849Z,98281.75
2023-01-21T12:28:30.163Z,98279.03
2023-01-21T12:31:07.546Z,98275.09
2023-01-21T12:33:50.563Z,98278.97
2023-01-21T12:36:29.939Z,98283.88
2023-01-21T12:39:23.828Z,98276.81
2023-01-21T12:42:29.383Z,98278.63
2023-01-21T12:45:23.106Z,98273.31
2023-01-21T12:48:14.823Z,98272.25
2023-01-21T12:50:57.066Z,98277.69
2023-01-21T12:54:07.033Z,98270.28
2023-01-21T12:56:39.307Z,98268.00
2023-01-21T12:59:43.873Z,98275.44
2023-01-21T13:02:49.394Z,98273.47
2023-01-21T13:05:50.248Z,98266.16
2023-01-21T13:08:44.000Z,98277.31
2023-01-21T13:11:23.493Z,98273.91
2023-01-21T13:14:19.892Z,98268.56
2023-01-21T13:16:58.172Z,98282.34
2023-01-21T13:19:26.018Z,98275.31
2023-01-21T13:22:48.964Z,98272.69
2023-01-21T13:25:33.819Z,98290.63
2023-01-21T13:28:39.580Z,98293.75
2023-01-21T13:31:18.550Z,98283.06
2023-01-21T13:33:49.424Z,98295.81
2023-01-21T13:36:29.147Z,98291.13
2023-01-21T13:39:17.272Z,98300.81
2023-01-21T13:42:37.552Z,98306.25
2023-01-21T13:45:24.410Z,98307.75
2023-01-21T13:48:39.482Z,98304.38
2023-01-21T13:51:47.530Z,98302.41
2023-01-21T13:55:10.566Z,98305.59
2023-01-21T13:58:02.936Z,98308.03
2023-01-21T14:00:43.944Z,98305.38
2023-01-21T14:03:35.061Z,98303.31
2023-01-21T14:06:19.936Z,98312.53
2023-01-21T14:09:16.577Z,98314.03
2023-01-21T14:12:17.441Z,98316.25
2023-01-21T14:15:29.446Z,98314.13
2023-01-21T14:18:33.869Z,98319.16
2023-01-21T14:21:49.472Z,98316.00
2023-01-21T14:24:47.313Z,98317.88
2023-01-21T14:27:26.916Z,98318.53
2023-01-21T14:30:08.925Z,98316.47
2023-01-21T14:32:57.413Z,98317.50
2023-01-21T14:35:28.247Z,98325.94
2023-01-21T14:38:46.969Z,98328.78
2023-01-21T14:41:15.774Z,98336.28
2023-01-21T14:43:44.368Z,98337.97
2023-01-21T14:46:33.889Z,98339.41
2023-01-21T14:49:10.400Z,98335.75
2023-01-21T14:51:47.703Z,98333.56
2023-01-21T14:54:26.827Z,98343.81
2023-01-21T14:57:13.641Z,98340.25
2023-01-21T14:59:46.744Z,98342.50
2023-01-21T15:02:37.187Z,98346.72
2023-01-21T15:05:26.128Z,98347.38
2023-01-21T15:08:11.372Z,98351.03
2023-01-21T15:10:41.361Z,98346.53
2023-01-21T15:13:39.595Z,98343.41
2023-01-21T15:16:16.318Z,98346.06
2023-01-21T15:19:16.429Z,98349.81
2023-01-21T15:22:18.689Z,98354.44
2023-01-21T15:25:15.695Z,98356.31
2023-01-21T15:28:40.650Z,98361.94
2023-01-21T15:31:12.036Z,98364.00
2023-01-21T15:33:47.291Z,98371.13
2023-01-21T15:36:30.461Z,98359.66
2023-01-21T15:39:12.956Z,98369.78
2023-01-21T15:41:50.746Z,98363.13
2023-01-21T15:44:48.239Z,98369.72
2023-01-21T15:47:39.115Z,98369.34
2023-01-21T15:50:25.082Z,98366.41
2023-01-21T15:53:50.638Z,98372.41
2023-01-21T15:56:57.300Z,98364.53
2023-01-21T15:59:34.805Z,98372.16
2023-01-21T16:02:28.266Z,98373.28
2023-01-21T16:05:20.406Z,98373.16
2023-01-21T16:08:14.184Z,98376.00
2023-01-21T16:11:11.080Z,98377.50
2023-01-21T16:13:51.859Z,98375.63
2023-01-21T16:16:56.068Z,98371.41
2023-01-21T16:19:35.187Z,98378.56
2023-01-21T16:22:07.657Z,98379.84
2023-01-21T16:24:49.838Z,98377.31
2023-01-21T16:27:28.237Z,98379.00
2023-01-21T16:30:11.823Z,98383.06
2023-01-21T16:32:39.516Z,98383.91
2023-01-21T16:35:08.077Z,98390.97
2023-01-21T16:37:36.290Z,98395.72
2023-01-21T16:40:12.883Z,98396.03
2023-01-21T16:42:41.685Z,98391.31
2023-01-21T16:45:14.859Z,98396.41
2023-01-21T16:47:43.010Z,98395.25
2023-01-21T16:50:24.775Z,98403.81
2023-01-21T16:52:54.442Z,98404.28
2023-01-21T16:55:27.790Z,98408.50
2023-01-21T16:57:59.109Z,98409.19
2023-01-21T17:00:31.024Z,98407.22
2023-01-21T17:03:00.622Z,98404.56
2023-01-21T17:05:34.524Z,98401.94
2023-01-21T17:08:09.914Z,98407.00
2023-01-21T17:10:52.637Z,98407.66
2023-01-21T17:13:22.655Z,98405.88
2023-01-21T17:16:00.696Z,98410.88
2023-01-21T17:18:34.175Z,98412.94
2023-01-21T17:21:14.848Z,98406.81
2023-01-21T17:24:07.788Z,98409.38
2023-01-21T17:26:41.971Z,98414.25
2023-01-21T17:29:21.933Z,98419.13
2023-01-21T17:32:02.787Z,98417.41
2023-01-21T17:34:36.599Z,98420.63
2023-01-21T17:38:03.837Z,98420.03
2023-01-21T17:40:58.783Z,98423.63
2023-01-21T17:43:28.068Z,98419.78
2023-01-21T17:45:58.025Z,98425.88
2023-01-21T17:48:46.317Z,98435.09
2023-01-21T17:51:30.180Z,98435.09
2023-01-21T17:54:00.838Z,98427.94
2023-01-21T17:56:50.527Z,98431.25
2023-01-21T17:59:40.921Z,98430.97
2023-01-21T18:02:17.044Z,98435.94
2023-01-21T18:04:45.644Z,98433.66
2023-01-21T18:07:24.624Z,98438.28
2023-01-21T18:09:54.248Z,98426.63
2023-01-21T18:12:22.331Z,98427.38
2023-01-21T18:14:50.175Z,98427.00
2023-01-21T18:17:20.777Z,98430.38
2023-01-21T18:19:48.625Z,98437.53
2023-01-21T18:22:28.234Z,98433.38
2023-01-21T18:24:56.324Z,98426.88
2023-01-21T18:27:26.102Z,98434.16
2023-01-21T18:29:54.758Z,98433.84
2023-01-21T18:32:22.479Z,98434.22
2023-01-21T18:34:50.338Z,98434.84
2023-01-21T18:37:20.081Z,98428.97
2023-01-21T18:39:47.921Z,98430.00
2023-01-21T18:42:18.045Z,98427.56
2023-01-21T18:44:46.019Z,98429.03
2023-01-21T18:47:16.971Z,98425.75
2023-01-21T18:49:45.893Z,98424.50
2023-01-21T18:52:17.717Z,98416.00
2023-01-21T18:54:45.657Z,98420.59
2023-01-21T18:57:21.422Z,98417.03
2023-01-21T18:59:49.279Z,98419.50
2023-01-21T19:02:20.388Z,98416.28
2023-01-21T19:04:48.551Z,98418.63
2023-01-21T19:07:19.033Z,98415.78
2023-01-21T19:09:49.152Z,98405.94
2023-01-21T19:12:21.088Z,98409.13
2023-01-21T19:14:49.167Z,98411.03
2023-01-21T19:17:35.130Z,98406.59
2023-01-21T19:20:02.960Z,98408.28
2023-01-21T19:22:30.678Z,98402.66
2023-01-21T19:24:58.408Z,98409.69
2023-01-21T19:27:31.653Z,98407.91
2023-01-21T19:29:59.370Z,98396.47
2023-01-21T19:32:27.215Z,98394.22
2023-01-21T19:34:57.703Z,98392.53
2023-01-21T19:37:25.789Z,98393.28
2023-01-21T19:39:53.618Z,98402.66
2023-01-21T19:42:21.339Z,98401.03
2023-01-21T19:44:49.080Z,98400.44
2023-01-21T19:47:28.910Z,98401.50
2023-01-21T19:49:56.752Z,98404.22
2023-01-21T19:52:24.588Z,98406.47
2023-01-21T19:54:54.824Z,98406.59
2023-01-21T19:57:22.792Z,98406.81
2023-01-21T19:59:52.922Z,98411.25
2023-01-21T20:02:20.712Z,98412.13
2023-01-21T20:04:48.478Z,98410.63
2023-01-21T20:07:16.705Z,98403.59
2023-01-21T20:09:44.409Z,98412.09
2023-01-21T20:12:13.457Z,98417.50
2023-01-21T20:14:41.289Z,98410.78
2023-01-21T20:17:13.213Z,98415.59
2023-01-21T20:19:41.067Z,98421.97
2023-01-21T20:22:13.221Z,98413.00
2023-01-21T20:24:40.940Z,98412.66
2023-01-21T20:27:14.272Z,98411.13
2023-01-21T20:29:49.663Z,98417.88
2023-01-21T20:32:23.430Z,98411.19
2023-01-21T20:34:51.148Z,98413.88
2023-01-21T20:37:18.869Z,98410.78
2023-01-21T20:39:46.713Z,98414.66
2023-01-21T20:42:14.436Z,98417.56
2023-01-21T20:44:42.165Z,98414.09
2023-01-21T20:47:11.208Z,98413.28
2023-01-21T20:49:38.921Z,98414.16
2023-01-21T20:52:06.765Z,98415.38
2023-01-21T20:54:34.494Z,98410.03
2023-01-21T20:57:03.816Z,98409.56
2023-01-21T20:59:31.496Z,98417.78
2023-01-21T21:01:59.248Z,98410.19
2023-01-21T21:04:29.117Z,98419.25
2023-01-21T21:06:56.821Z,98419.34
2023-01-21T21:09:24.551Z,98415.00
2023-01-21T21:11:52.263Z,98412.81
2023-01-21T21:14:20.719Z,98420.63
2023-01-21T21:16:48.492Z,98412.31
2023-01-21T21:19:16.389Z,98415.59
2023-01-21T21:21:44.122Z,98413.13
2023-01-21T21:24:11.836Z,98409.91
2023-01-21T21:26:41.018Z,98422.28
2023-01-21T21:29:15.681Z,98405.31
2023-01-21T21:31:43.465Z,98407.41
2023-01-21T21:34:12.205Z,98409.53
2023-01-21T21:36:42.327Z,98401.13
2023-01-21T21:39:10.049Z,98404.06
2023-01-21T21:41:56.254Z,98401.50
2023-01-21T21:44:23.976Z,98399.53
2023-01-21T21:47:10.297Z,98391.66
2023-01-21T21:49:38.034Z,98392.44
2023-01-21T21:52:05.863Z,98391.16
2023-01-21T21:54:33.591Z,98393.56
2023-01-21T21:57:01.315Z,98391.75
2023-01-21T21:59:29.170Z,98384.31
2023-01-21T22:01:58.525Z,98384.03
2023-01-21T22:04:26.280Z,98387.31
2023-01-21T22:06:53.995Z,98379.72
2023-01-21T22:09:21.838Z,98386.25
2023-01-21T22:11:49.686Z,98386.47
2023-01-21T22:14:18.006Z,98373.00
2023-01-21T22:16:45.911Z,98374.63
2023-01-21T22:19:13.688Z,98373.78
2023-01-21T22:21:41.423Z,98375.47
2023-01-21T22:24:10.220Z,98370.72
2023-01-21T22:26:38.187Z,98373.94
2023-01-21T22:29:06.378Z,98369.06
2023-01-21T22:31:34.721Z,98374.03
2023-01-21T22:34:02.444Z,98361.88
2023-01-21T22:36:31.473Z,98367.84
2023-01-21T22:38:59.921Z,98357.06
2023-01-21T22:41:28.470Z,98352.72
2023-01-21T22:43:56.553Z,98356.78
2023-01-21T22:46:30.167Z,98353.53
2023-01-21T22:48:58.477Z,98356.34
2023-01-21T22:51:26.662Z,98353.91
2023-01-21T22:53:54.880Z,98354.75
2023-01-21T22:56:44.970Z,98350.81
2023-01-21T22:59:13.986Z,98343.78
2023-01-21T23:01:42.369Z,98346.69
2023-01-21T23:04:10.390Z,98343.88
2023-01-21T23:06:38.215Z,98337.94
2023-01-21T23:09:09.181Z,98333.28
2023-01-21T23:11:39.660Z,98332.22
2023-01-21T23:14:09.930Z,98330.28
2023-01-21T23:16:37.744Z,98329.75
2023-01-21T23:19:05.704Z,98330.09
2023-01-21T23:21:33.672Z,98328.34
2023-01-21T23:24:01.633Z,98325.25
2023-01-21T23:26:29.473Z,98322.63
2023-01-21T23:28:58.165Z,98314.38
2023-01-21T23:31:26.115Z,98315.88
2023-01-21T23:33:58.766Z,98319.09
2023-01-21T23:36:26.609Z,98311.75
2023-01-21T23:38:54.325Z,98313.09
2023-01-21T23:41:22.284Z,98309.34
2023-01-21T23:43:50.014Z,98310.63
2023-01-21T23:46:19.787Z,98313.50
2023-01-21T23:48:47.984Z,98319.91
2023-01-21T23:51:18.284Z,98300.69
2023-01-21T23:53:48.958Z,98307.63
2023-01-21T23:56:21.949Z,98305.13
2023-01-21T23:58:50.861Z,98299.28
